Time;durP1;ratioP1;P1;durP2;ratioP2;P2;SDS_P1;SDS_P2;PMS_P1;PMS_P2;Temp;Humidity;BMP_temperature;BMP_pressure;BME280_temperature;BME280_humidity;BME280_pressure;Samples;Min_cycle;Max_cycle;Signal;HPM_P1;HPM_P2
2020/12/26 00:00:26;;;;;;;8.50;5.30;;;;;;;20.42;40.98;100945.50;5014181;28;20092;-73
2020/12/26 00:02:51;;;;;;;7.85;5.10;;;;;;;20.39;41.13;100954.31;5014202;28;20038;-73
2020/12/26 00:05:17;;;;;;;7.38;4.50;;;;;;;20.40;40.96;100948.13;5014245;28;20145;-74
2020/12/26 00:07:42;;;;;;;9.25;4.97;;;;;;;20.35;41.13;100945.53;5013947;28;20080;-80
2020/12/26 00:10:08;;;;;;;6.85;5.20;;;;;;;20.35;41.28;100942.91;5014257;28;20495;-72
2020/12/26 00:12:34;;;;;;;8.15;4.50;;;;;;;20.36;41.04;100947.28;5014240;28;20061;-74
2020/12/26 00:15:01;;;;;;;7.70;4.70;;;;;;;20.38;41.07;100955.19;4996124;28;20061;-75
2020/12/26 00:17:26;;;;;;;7.70;5.00;;;;;;;20.37;41.20;100953.44;4994502;28;20042;-74
2020/12/26 00:19:51;;;;;;;7.25;4.97;;;;;;;20.38;41.24;100940.25;4995358;28;20499;-74
2020/12/26 00:22:17;;;;;;;8.00;4.30;;;;;;;20.36;41.07;100952.56;5013553;28;20026;-74
2020/12/26 00:24:42;;;;;;;8.65;4.93;;;;;;;20.37;41.31;100953.44;5013888;28;20463;-72
2020/12/26 00:27:08;;;;;;;7.05;4.03;;;;;;;20.35;41.25;100950.81;5013889;28;20034;-73
2020/12/26 00:29:33;;;;;;;8.20;5.47;;;;;;;20.36;41.23;100943.78;5013660;28;20034;-74
2020/12/26 00:31:58;;;;;;;7.38;4.18;;;;;;;20.34;41.08;100949.06;5013548;28;20029;-79
2020/12/26 00:34:25;;;;;;;6.28;4.15;;;;;;;20.35;41.25;100942.91;5013831;28;20495;-71
2020/12/26 00:36:50;;;;;;;9.52;5.15;;;;;;;20.36;41.14;100935.91;5013202;28;20053;-74
2020/12/26 00:39:16;;;;;;;7.68;4.57;;;;;;;20.35;41.19;100932.38;5013998;28;20029;-74
2020/12/26 00:41:45;;;;;;;7.90;4.60;;;;;;;20.39;41.24;100939.38;5013628;28;20034;-74
2020/12/26 00:44:10;;;;;;;7.35;4.35;;;;;;;20.44;41.13;100936.69;5011203;28;20513;-80
2020/12/26 00:46:35;;;;;;;6.30;4.35;;;;;;;20.43;40.92;100928.81;4993894;28;20030;-73
2020/12/26 00:49:01;;;;;;;6.55;4.65;;;;;;;20.44;40.77;100935.81;4993587;28;20041;-75
2020/12/26 00:51:26;;;;;;;6.30;4.30;;;;;;;20.47;40.80;100935.78;4997370;28;20060;-73
2020/12/26 00:53:52;;;;;;;7.65;4.40;;;;;;;20.46;40.80;100934.03;5013269;28;20034;-72
2020/12/26 00:56:17;;;;;;;5.13;3.50;;;;;;;20.45;41.00;100941.06;5013398;28;20038;-73
2020/12/26 00:58:42;;;;;;;8.15;4.95;;;;;;;20.45;40.83;100951.59;5013292;28;20127;-75
2020/12/26 01:01:08;;;;;;;7.78;4.38;;;;;;;20.44;40.84;100957.75;5013049;28;20041;-76
2020/12/26 01:03:33;;;;;;;6.55;3.88;;;;;;;20.46;40.94;100955.09;5013087;28;20034;-76
2020/12/26 01:05:59;;;;;;;5.15;3.63;;;;;;;20.45;40.93;100956.84;5012716;28;20045;-77
2020/12/26 01:08:25;;;;;;;8.80;4.47;;;;;;;20.44;40.82;100962.16;5013045;28;20066;-72
2020/12/26 01:10:50;;;;;;;7.53;4.30;;;;;;;20.42;40.91;100966.56;5013125;28;20546;-77
2020/12/26 01:13:17;;;;;;;9.57;4.07;;;;;;;20.40;41.06;100969.19;5008825;28;20146;-73
2020/12/26 01:15:45;;;;;;;8.38;4.85;;;;;;;20.41;40.83;100963.03;4993466;28;20046;-73
2020/12/26 01:18:10;;;;;;;6.60;4.22;;;;;;;20.33;40.99;100957.84;4992847;28;20038;-74
2020/12/26 01:20:36;;;;;;;6.30;3.88;;;;;;;20.33;40.95;100959.63;5000184;28;20502;-76
2020/12/26 01:23:01;;;;;;;5.60;3.90;;;;;;;20.31;41.08;100957.00;5012796;28;20034;-72
2020/12/26 01:25:26;;;;;;;6.18;3.67;;;;;;;20.32;41.08;100958.72;4995370;28;20070;-76
2020/12/26 01:27:52;;;;;;;6.10;3.67;;;;;;;20.30;41.01;100954.38;4993120;28;20045;-72
2020/12/26 01:30:17;;;;;;;5.70;3.65;;;;;;;20.30;41.15;100957.00;4993137;28;20029;-75
2020/12/26 01:32:43;;;;;;;5.40;3.80;;;;;;;20.28;41.17;100954.41;4993032;28;20039;-73
2020/12/26 01:35:08;;;;;;;7.13;3.40;;;;;;;20.27;40.98;100960.56;4992794;28;20038;-73
2020/12/26 01:37:34;;;;;;;11.32;4.50;;;;;;;20.30;41.09;100957.00;4991757;28;20030;-73
2020/12/26 01:39:59;;;;;;;6.63;3.90;;;;;;;20.30;41.10;100959.63;4992985;28;20407;-79
2020/12/26 01:42:24;;;;;;;7.82;4.35;;;;;;;20.28;41.02;100962.31;4992935;28;20100;-73
2020/12/26 01:44:50;;;;;;;6.63;3.85;;;;;;;20.27;41.32;100970.19;4992802;28;20037;-78
2020/12/26 01:47:17;;;;;;;6.93;3.75;;;;;;;20.27;40.99;100973.72;4992835;28;20034;-75
2020/12/26 01:49:43;;;;;;;7.05;3.80;;;;;;;20.27;41.03;100973.72;4992323;28;20558;-74
2020/12/26 01:52:10;;;;;;;6.72;3.97;;;;;;;20.25;40.98;100978.13;5002019;28;20040;-75
2020/12/26 01:54:36;;;;;;;9.07;3.90;;;;;;;20.24;41.27;100982.50;5012427;28;20462;-74
2020/12/26 01:57:03;;;;;;;6.93;4.15;;;;;;;20.29;41.21;100986.84;5012339;28;20057;-75
2020/12/26 01:59:28;;;;;;;5.07;3.65;;;;;;;20.27;41.16;100981.59;5010983;28;20037;-75
2020/12/26 02:01:57;;;;;;;5.97;4.00;;;;;;;20.27;41.28;100980.72;5012310;28;20053;-73
2020/12/26 02:04:23;;;;;;;6.22;4.28;;;;;;;20.28;40.94;100980.72;5016259;28;20144;-78
2020/12/26 02:06:52;;;;;;;6.72;3.83;;;;;;;20.27;40.92;100976.34;5017388;28;20526;-75
2020/12/26 02:09:19;;;;;;;6.20;3.58;;;;;;;20.31;41.12;100974.53;5030078;28;20033;-76
2020/12/26 02:11:45;;;;;;;6.88;3.97;;;;;;;20.31;40.93;100979.81;5015443;28;20041;-74
2020/12/26 02:14:10;;;;;;;6.88;4.10;;;;;;;20.31;41.07;100975.44;5000576;28;20054;-73
2020/12/26 02:16:49;;;;;;;6.97;3.85;;;;;;;20.30;41.00;100972.81;4991888;28;20084;-76
2020/12/26 02:19:17;;;;;;;4.32;3.22;;;;;;;20.34;40.89;100961.38;4991747;28;20505;-78
2020/12/26 02:21:43;;;;;;;4.95;3.30;;;;;;;20.37;40.82;100961.34;5008468;28;20422;-73
2020/12/26 02:24:09;;;;;;;6.43;3.42;;;;;;;20.35;40.92;100958.69;5018766;28;20534;-78
2020/12/26 02:26:35;;;;;;;5.03;3.45;;;;;;;20.35;40.99;100963.97;5031746;28;20104;-72
2020/12/26 02:29:01;;;;;;;5.70;3.30;;;;;;;20.34;40.87;100956.09;5031794;28;20138;-75
2020/12/26 02:31:26;;;;;;;5.65;3.40;;;;;;;20.35;40.86;100961.34;5031451;28;20033;-75
2020/12/26 02:33:52;;;;;;;8.23;3.70;;;;;;;20.29;41.05;100956.16;5031421;28;20099;-76
2020/12/26 02:36:17;;;;;;;5.78;3.35;;;;;;;20.32;40.88;100958.72;5031479;28;20048;-76
2020/12/26 02:38:43;;;;;;;5.10;3.40;;;;;;;20.31;41.12;100954.38;5031704;28;20497;-77
2020/12/26 02:41:09;;;;;;;6.88;3.78;;;;;;;20.33;41.12;100959.63;5031367;28;20117;-77
2020/12/26 02:43:35;;;;;;;6.20;3.60;;;;;;;20.33;40.86;100949.94;5031285;28;20061;-73
2020/12/26 02:46:01;;;;;;;5.28;3.22;;;;;;;20.32;40.96;100953.47;4997035;28;20069;-79
2020/12/26 02:48:26;;;;;;;5.40;3.97;;;;;;;20.31;41.00;100943.84;4991470;28;20045;-76
2020/12/26 02:50:52;;;;;;;5.80;3.25;;;;;;;20.32;40.89;100948.19;4992261;28;20439;-74
2020/12/26 02:53:18;;;;;;;5.15;3.50;;;;;;;20.28;40.98;100949.13;4991975;28;20037;-77
2020/12/26 02:55:44;;;;;;;5.20;3.10;;;;;;;20.26;41.00;100945.66;4992007;28;20413;-74
2020/12/26 02:58:09;;;;;;;5.82;3.40;;;;;;;20.23;41.13;100943.94;4991994;28;20031;-75
2020/12/26 03:00:35;;;;;;;7.10;3.83;;;;;;;20.22;41.26;100946.56;4991637;28;20027;-75
2020/12/26 03:03:00;;;;;;;6.53;3.83;;;;;;;20.21;41.01;100944.81;4991687;28;20046;-73
2020/12/26 03:05:25;;;;;;;4.93;3.08;;;;;;;20.21;41.11;100937.81;4991925;28;20053;-72
2020/12/26 03:07:51;;;;;;;5.07;3.15;;;;;;;20.24;40.90;100931.63;4992075;28;20050;-74
2020/12/26 03:10:17;;;;;;;5.18;3.15;;;;;;;20.24;40.92;100935.13;4992016;28;20116;-74
2020/12/26 03:12:42;;;;;;;5.57;3.50;;;;;;;20.23;41.16;100935.16;4991571;28;20069;-72
2020/12/26 03:15:08;;;;;;;6.13;3.38;;;;;;;20.21;41.15;100935.16;4991834;28;20565;-76
2020/12/26 03:17:34;;;;;;;5.38;3.00;;;;;;;20.22;40.95;100936.91;4991652;28;20043;-73
2020/12/26 03:19:59;;;;;;;5.63;3.03;;;;;;;20.27;40.92;100936.88;4991187;28;20050;-74
2020/12/26 03:22:26;;;;;;;8.20;3.13;;;;;;;20.24;41.08;100931.63;4991852;28;20046;-76
2020/12/26 03:24:53;;;;;;;5.95;4.03;;;;;;;20.27;41.17;100936.88;5004368;28;20045;-74
2020/12/26 03:27:19;;;;;;;4.35;2.90;;;;;;;20.24;41.03;100927.22;5011467;28;20104;-74
2020/12/26 03:29:44;;;;;;;5.63;3.33;;;;;;;20.23;41.10;100924.63;5014168;28;20070;-72
2020/12/26 03:32:10;;;;;;;7.40;3.25;;;;;;;20.23;41.21;100919.34;5014470;28;20034;-75
2020/12/26 03:34:36;;;;;;;5.68;2.80;;;;;;;20.28;40.97;100914.94;5015015;28;20084;-75
2020/12/26 03:37:02;;;;;;;6.32;3.13;;;;;;;20.24;41.00;100914.06;5014799;28;20037;-75
2020/12/26 03:39:27;;;;;;;5.68;2.90;;;;;;;20.26;40.93;100916.69;5014938;28;20034;-74
2020/12/26 03:41:53;;;;;;;5.18;2.85;;;;;;;20.22;41.12;100915.88;5014910;28;20046;-75
2020/12/26 03:44:18;;;;;;;4.40;2.80;;;;;;;20.25;40.88;100907.06;5011187;28;20101;-73
2020/12/26 03:46:45;;;;;;;6.32;3.00;;;;;;;20.28;41.10;100908.78;4994534;28;20030;-72
2020/12/26 03:49:11;;;;;;;4.88;2.90;;;;;;;20.27;40.89;100907.91;4994862;28;20388;-74
2020/12/26 03:51:36;;;;;;;4.97;2.80;;;;;;;20.26;40.90;100902.66;5000080;28;20038;-72
2020/12/26 03:54:02;;;;;;;5.32;3.05;;;;;;;20.25;40.90;100907.06;5014703;28;20122;-76
2020/12/26 03:56:27;;;;;;;5.00;3.00;;;;;;;20.24;41.08;100900.03;5014333;28;20045;-74
2020/12/26 03:58:52;;;;;;;4.65;2.80;;;;;;;20.23;41.05;100896.56;5014308;28;20037;-75
2020/12/26 04:01:18;;;;;;;6.57;2.95;;;;;;;20.23;41.06;100895.66;5022483;28;20033;-76
2020/12/26 04:03:44;;;;;;;3.63;2.67;;;;;;;20.25;41.12;100888.63;5034217;28;20037;-77
2020/12/26 04:06:09;;;;;;;4.53;2.85;;;;;;;20.24;41.00;100884.25;5033887;28;20045;-75
2020/12/26 04:08:34;;;;;;;4.30;2.75;;;;;;;20.23;40.95;100890.41;5034190;28;20037;-74
2020/12/26 04:11:00;;;;;;;4.30;2.63;;;;;;;20.26;40.87;100879.84;5033927;28;20117;-74
2020/12/26 04:13:25;;;;;;;3.65;2.38;;;;;;;20.26;40.96;100890.38;5028579;28;20119;-76
2020/12/26 04:15:50;;;;;;;4.70;2.60;;;;;;;20.26;40.91;100895.63;5014469;28;20042;-76
2020/12/26 04:18:16;;;;;;;4.60;3.22;;;;;;;20.24;40.88;100884.25;5018261;28;20147;-76
2020/12/26 04:20:42;;;;;;;4.95;2.88;;;;;;;20.23;40.90;100885.13;5010642;28;20100;-76
2020/12/26 04:23:07;;;;;;;6.10;2.88;;;;;;;20.21;40.96;100884.28;5012838;28;20042;-74
2020/12/26 04:25:33;;;;;;;4.53;2.63;;;;;;;20.22;41.06;100883.41;5033447;28;20040;-73
2020/12/26 04:27:58;;;;;;;5.68;2.40;;;;;;;20.20;41.14;100888.69;5013905;28;20092;-75
2020/12/26 04:30:24;;;;;;;4.95;2.47;;;;;;;20.24;40.81;100882.47;5013617;28;20052;-75
2020/12/26 04:32:53;;;;;;;3.03;2.15;;;;;;;20.23;40.81;100869.34;5012402;28;20030;-76
2020/12/26 04:35:20;;;;;;;3.60;2.47;;;;;;;20.28;40.95;100867.56;5013686;28;20042;-74
2020/12/26 04:37:47;;;;;;;3.90;2.33;;;;;;;20.25;41.04;100870.22;5013805;28;20041;-76
2020/12/26 04:40:12;;;;;;;3.25;2.03;;;;;;;20.26;40.80;100855.28;5012102;28;20038;-76
2020/12/26 04:42:38;;;;;;;5.05;2.83;;;;;;;20.24;41.04;100848.28;5012259;28;20041;-74
2020/12/26 04:45:04;;;;;;;3.88;2.60;;;;;;;20.24;40.83;100845.63;5003717;28;20038;-74
2020/12/26 04:47:39;;;;;;;4.55;2.67;;;;;;;20.26;41.03;100845.63;4992614;28;20046;-75
2020/12/26 04:50:05;;;;;;;5.20;2.33;;;;;;;20.27;40.80;100833.34;4993751;28;20031;-74
2020/12/26 04:52:34;;;;;;;5.60;2.63;;;;;;;20.29;40.83;100826.28;5006138;28;20463;-74
2020/12/26 04:55:04;;;;;;;3.38;2.40;;;;;;;20.31;40.78;100830.69;5013436;28;20108;-73
2020/12/26 04:57:34;;;;;;;4.53;1.92;;;;;;;20.28;40.79;100828.06;5012941;28;20042;-76
2020/12/26 05:00:01;;;;;;;3.67;2.13;;;;;;;20.29;40.99;100829.81;5013207;28;20030;-74
2020/12/26 05:02:44;;;;;;;4.65;2.17;;;;;;;20.30;40.87;100831.56;5012751;28;20391;-76
2020/12/26 05:05:09;;;;;;;2.60;1.90;;;;;;;20.28;40.93;100824.56;5013180;28;20042;-73
2020/12/26 05:07:37;;;;;;;5.03;2.35;;;;;;;20.26;40.94;100819.31;5013112;28;20046;-72
2020/12/26 05:10:04;;;;;;;3.30;1.73;;;;;;;20.27;40.88;100821.06;5013100;28;20330;-80
2020/12/26 05:12:30;;;;;;;3.75;2.42;;;;;;;20.29;40.78;100808.75;5012589;28;20510;-71
2020/12/26 05:14:55;;;;;;;4.18;2.28;;;;;;;20.31;40.86;100811.38;4995572;28;20061;-74
2020/12/26 05:17:20;;;;;;;4.25;2.30;;;;;;;20.23;41.08;100821.97;4993285;28;20034;-74
2020/12/26 05:19:47;;;;;;;3.58;1.92;;;;;;;20.19;41.15;100818.53;4993092;28;20145;-77
2020/12/26 05:22:13;;;;;;;5.15;2.13;;;;;;;20.16;41.07;100823.81;4993190;28;20034;-75
2020/12/26 05:24:38;;;;;;;3.55;2.00;;;;;;;20.16;40.97;100823.81;5003981;28;20034;-73
2020/12/26 05:27:04;;;;;;;4.18;2.33;;;;;;;20.14;40.96;100817.69;5012486;28;20120;-72
2020/12/26 05:29:31;;;;;;;4.60;2.20;;;;;;;20.16;41.25;100820.31;5012879;28;20038;-73
2020/12/26 05:31:59;;;;;;;4.50;1.88;;;;;;;20.17;41.16;100814.16;5012669;28;20049;-75
2020/12/26 05:34:50;;;;;;;4.22;2.05;;;;;;;20.14;41.11;100806.31;5012624;28;20490;-74
2020/12/26 05:37:20;;;;;;;4.03;1.85;;;;;;;20.15;41.28;100805.44;5010545;28;20069;-79
2020/12/26 05:39:45;;;;;;;3.58;2.05;;;;;;;20.16;40.96;100810.66;5012629;28;20506;-76
2020/12/26 05:42:19;;;;;;;6.47;2.25;;;;;;;20.15;41.04;100805.44;5012177;28;20045;-74
2020/12/26 05:44:45;;;;;;;3.47;2.08;;;;;;;20.15;40.99;100806.28;5005658;28;20030;-72
2020/12/26 05:47:10;;;;;;;4.53;2.10;;;;;;;20.16;41.18;100815.06;4992757;28;20030;-72
2020/12/26 05:49:38;;;;;;;3.42;2.20;;;;;;;20.15;41.16;100813.31;4992539;28;20034;-72
2020/12/26 05:52:11;;;;;;;3.60;1.90;;;;;;;20.13;41.22;100808.06;5000824;28;20542;-71
2020/12/26 05:54:38;;;;;;;2.90;1.75;;;;;;;20.16;41.11;100815.06;5012298;28;20066;-73
2020/12/26 05:57:08;;;;;;;5.55;1.92;;;;;;;20.21;41.09;100803.59;5011984;28;20095;-72
2020/12/26 05:59:34;;;;;;;3.53;1.83;;;;;;;20.26;40.77;100813.16;5012424;28;20495;-74
2020/12/26 06:02:28;;;;;;;4.18;1.88;;;;;;;20.26;40.96;100808.78;5012007;28;20038;-77
2020/12/26 06:05:02;;;;;;;3.33;2.05;;;;;;;20.26;40.72;100813.16;5012075;28;20084;-72
2020/12/26 06:07:35;;;;;;;5.20;1.98;;;;;;;20.27;40.84;100809.66;5012231;28;20033;-72
2020/12/26 06:10:04;;;;;;;3.83;1.90;;;;;;;20.25;40.70;100809.69;5011880;28;20033;-74
2020/12/26 06:12:30;;;;;;;3.13;1.63;;;;;;;20.26;40.91;100811.41;5011932;28;20037;-74
2020/12/26 06:14:57;;;;;;;4.65;2.38;;;;;;;20.26;40.89;100805.28;5012041;28;20065;-73
2020/12/26 06:17:28;;;;;;;2.83;1.70;;;;;;;20.23;40.78;100801.81;5012199;28;20057;-73
2020/12/26 06:19:56;;;;;;;3.08;1.60;;;;;;;20.26;40.79;100815.78;5010083;28;20065;-76
2020/12/26 06:22:22;;;;;;;2.40;1.40;;;;;;;20.27;40.79;100813.16;4992434;28;20078;-74
2020/12/26 06:24:48;;;;;;;2.22;1.45;;;;;;;20.28;40.95;100821.91;5003882;28;20477;-74
2020/12/26 06:27:14;;;;;;;3.72;1.80;;;;;;;20.21;40.87;100816.75;5011910;28;20038;-74
2020/12/26 06:29:44;;;;;;;5.05;1.50;;;;;;;20.14;40.80;100814.22;5012403;28;20379;-76
2020/12/26 06:32:11;;;;;;;3.47;1.50;;;;;;;20.12;40.94;100808.09;5017339;28;20117;-76
2020/12/26 06:34:40;;;;;;;1.65;1.25;;;;;;;20.11;41.04;100809.81;5016879;28;20062;-75
2020/12/26 06:37:06;;;;;;;2.67;1.58;;;;;;;20.12;41.06;100811.56;5030312;28;20057;-75
2020/12/26 06:39:33;;;;;;;2.40;1.63;;;;;;;20.12;41.13;100815.97;5018001;28;20494;-74
2020/12/26 06:42:16;;;;;;;3.63;1.63;;;;;;;20.12;40.94;100815.97;5011742;28;20044;-74
2020/12/26 06:44:44;;;;;;;2.33;1.55;;;;;;;20.12;41.22;100816.84;5005474;28;20105;-75
2020/12/26 06:47:37;;;;;;;3.30;1.70;;;;;;;20.13;40.99;100807.19;4991998;28;20081;-79
2020/12/26 06:50:20;;;;;;;1.80;1.40;;;;;;;20.11;41.01;100822.97;4991816;28;20038;-74
2020/12/26 06:52:46;;;;;;;1.95;1.48;;;;;;;20.13;40.90;100815.94;5006366;28;20034;-75
2020/12/26 06:55:44;;;;;;;3.10;1.42;;;;;;;20.12;40.94;100814.22;5011378;28;20052;-73
2020/12/26 06:58:10;;;;;;;2.58;1.45;;;;;;;20.12;40.85;100816.84;5011598;28;20541;-73
2020/12/26 07:00:36;;;;;;;2.42;1.40;;;;;;;20.13;40.86;100812.47;5011369;28;20462;-74
2020/12/26 07:03:20;;;;;;;3.35;1.60;;;;;;;20.11;41.01;100814.22;5013425;28;20710;-73
2020/12/26 07:05:47;;;;;;;3.25;1.55;;;;;;;20.13;40.94;100820.34;5015520;28;20113;-76
2020/12/26 07:08:25;;;;;;;2.75;1.42;;;;;;;20.12;40.90;100822.09;5015193;28;20042;-72
2020/12/26 07:10:51;;;;;;;1.90;1.33;;;;;;;20.20;40.80;100825.53;5015237;28;20036;-79
2020/12/26 07:13:41;;;;;;;3.85;2.03;;;;;;;20.23;40.91;100822.88;5011054;28;20034;-77
2020/12/26 07:16:39;;;;;;;2.55;1.73;;;;;;;20.22;40.82;100823.75;4995791;28;20038;-75
2020/12/26 07:19:21;;;;;;;5.05;1.70;;;;;;;20.20;40.77;100822.91;4995136;28;20503;-74
2020/12/26 07:22:06;;;;;;;4.45;2.00;;;;;;;20.20;40.96;100827.28;5012320;28;20129;-74
2020/12/26 07:24:34;;;;;;;2.85;1.70;;;;;;;20.22;40.67;100836.03;5014702;28;20088;-74
2020/12/26 07:27:14;;;;;;;2.67;1.65;;;;;;;20.21;40.73;100839.53;5014909;28;20391;-74
2020/12/26 07:30:05;;;;;;;3.35;1.50;;;;;;;20.20;40.66;100838.69;5014983;28;20454;-72
2020/12/26 07:32:43;;;;;;;3.97;1.65;;;;;;;20.21;40.69;100840.44;5014730;28;20042;-72
2020/12/26 07:35:11;;;;;;;3.42;1.50;;;;;;;20.20;40.69;100838.69;5015049;28;20026;-73
2020/12/26 07:37:40;;;;;;;2.50;1.65;;;;;;;20.16;41.12;100846.63;5014678;28;20107;-75
2020/12/26 07:40:06;;;;;;;2.90;1.65;;;;;;;20.13;41.00;100849.31;5014758;28;20062;-72
2020/12/26 07:42:33;;;;;;;2.38;1.60;;;;;;;20.10;40.98;100844.06;5014610;28;20052;-74
2020/12/26 07:45:07;;;;;;;2.20;1.60;;;;;;;20.09;41.17;100848.44;5005933;28;20022;-74
2020/12/26 07:47:33;;;;;;;3.42;2.00;;;;;;;20.11;41.04;100851.06;4995088;28;20438;-75
2020/12/26 07:49:59;;;;;;;3.78;2.05;;;;;;;20.11;41.11;100844.03;4994819;28;20034;-74
2020/12/26 07:52:25;;;;;;;3.58;1.63;;;;;;;20.12;40.78;100845.78;5006303;28;20038;-72
2020/12/26 07:54:58;;;;;;;3.03;1.92;;;;;;;20.11;40.93;100845.81;5014510;28;20144;-74
2020/12/26 07:57:25;;;;;;;4.60;1.77;;;;;;;20.13;41.04;100833.50;5014554;28;20034;-72
2020/12/26 07:59:50;;;;;;;2.55;1.70;;;;;;;20.15;40.70;100831.75;5014406;28;20037;-74
2020/12/26 08:02:15;;;;;;;2.97;1.90;;;;;;;20.16;40.71;100838.75;5014078;28;20037;-78
2020/12/26 08:04:45;;;;;;;3.70;1.98;;;;;;;20.16;40.82;100846.63;5014361;28;20038;-75
2020/12/26 08:07:14;;;;;;;3.00;1.70;;;;;;;20.19;40.99;100854.47;5014515;28;20106;-75
2020/12/26 08:09:53;;;;;;;2.33;1.85;;;;;;;20.21;40.96;100848.31;5014601;28;20560;-74
2020/12/26 08:12:20;;;;;;;3.90;1.73;;;;;;;20.28;40.62;100849.13;5014213;28;20041;-72
2020/12/26 08:14:59;;;;;;;2.28;1.75;;;;;;;20.36;40.71;100843.78;4997309;28;20096;-76
2020/12/26 08:17:25;;;;;;;6.32;2.10;;;;;;;20.42;40.70;100853.34;4994475;28;20026;-74
2020/12/26 08:20:00;;;;;;;2.70;1.55;;;;;;;20.46;40.57;100852.44;4995139;28;20454;-75
2020/12/26 08:22:27;;;;;;;2.50;1.65;;;;;;;20.49;40.34;100860.28;5013768;28;20044;-75
2020/12/26 08:25:07;;;;;;;3.90;2.08;;;;;;;20.45;40.45;100854.19;5013865;28;20387;-72
2020/12/26 08:27:33;;;;;;;3.03;1.73;;;;;;;20.48;40.54;100848.00;5013997;28;20049;-75
2020/12/26 08:30:07;;;;;;;3.50;2.20;;;;;;;20.49;40.43;100849.75;5013989;28;20033;-74
2020/12/26 08:33:05;;;;;;;2.30;1.58;;;;;;;20.47;40.57;100849.78;5013716;28;20108;-73
2020/12/26 08:35:31;;;;;;;5.45;1.80;;;;;;;20.46;40.51;100842.75;5013570;28;20076;-76
2020/12/26 08:38:03;;;;;;;4.85;1.92;;;;;;;20.41;40.47;100841.06;5013783;28;20421;-76
2020/12/26 08:40:31;;;;;;;7.38;2.20;;;;;;;20.38;40.72;100845.47;5013891;28;20056;-72
2020/12/26 08:42:57;;;;;;;4.68;1.83;;;;;;;20.35;40.71;100850.78;5014412;28;20076;-74
2020/12/26 08:45:29;;;;;;;3.20;2.00;;;;;;;20.34;40.83;100850.81;5006019;28;20030;-74
2020/12/26 08:47:58;;;;;;;3.83;2.03;;;;;;;20.33;40.70;100849.94;5009889;28;20584;-77
2020/12/26 08:50:24;;;;;;;5.18;1.90;;;;;;;20.37;40.66;100850.78;4998461;28;20415;-74
2020/12/26 08:53:06;;;;;;;2.78;1.90;;;;;;;20.39;40.60;100852.50;4997839;28;20043;-75
2020/12/26 08:55:43;;;;;;;4.95;1.55;;;;;;;20.38;40.61;100849.91;4992574;28;20046;-79
2020/12/26 08:58:08;;;;;;;9.05;1.92;;;;;;;20.36;40.79;100834.09;4994086;28;20053;-78
2020/12/26 09:00:36;;;;;;;3.65;1.60;;;;;;;20.35;40.80;100842.88;4992346;28;20057;-75
2020/12/26 09:03:02;;;;;;;6.57;2.10;;;;;;;20.36;40.89;100841.13;4993649;28;20049;-73
2020/12/26 09:05:29;;;;;;;3.47;1.80;;;;;;;20.38;40.70;100832.31;4993385;28;20413;-73
2020/12/26 09:08:09;;;;;;;5.40;1.80;;;;;;;20.52;40.65;100826.91;4993586;28;20034;-74
2020/12/26 09:10:36;;;;;;;7.40;2.45;;;;;;;20.64;40.28;100828.47;4993546;28;20049;-74
2020/12/26 09:13:15;;;;;;;7.25;1.65;;;;;;;21.06;39.85;100822.66;4993192;28;20093;-76
2020/12/26 09:15:58;;;;;;;3.10;1.70;;;;;;;21.12;39.90;100829.59;4993544;28;20836;-72
2020/12/26 09:18:26;;;;;;;4.18;1.73;;;;;;;21.81;38.93;100819.69;4975161;28;20664;-76
2020/12/26 09:20:57;;;;;;;4.43;1.77;;;;;;;22.09;38.66;100824.44;5001403;28;20044;-75
2020/12/26 09:23:24;;;;;;;2.67;1.80;;;;;;;22.35;37.97;100813.38;5010960;28;20033;-73
2020/12/26 09:25:50;;;;;;;8.40;2.22;;;;;;;21.93;38.71;100808.06;5011647;28;20034;-77
2020/12/26 09:28:16;;;;;;;5.63;1.83;;;;;;;21.65;39.35;100803.25;5012819;28;20095;-74
2020/12/26 09:30:42;;;;;;;5.55;2.03;;;;;;;21.53;39.46;100796.44;5011214;28;20117;-76
2020/12/26 09:33:08;;;;;;;4.85;1.60;;;;;;;21.48;39.90;100798.25;5012430;28;20156;-74
2020/12/26 09:35:35;;;;;;;6.90;1.70;;;;;;;21.49;39.91;100785.97;5012622;28;20058;-77
2020/12/26 09:38:00;;;;;;;7.18;2.03;;;;;;;21.56;39.87;100784.94;5012539;28;20042;-74
2020/12/26 09:40:33;;;;;;;2.95;1.67;;;;;;;21.57;40.01;100792.81;5012576;28;20037;-75
2020/12/26 09:43:00;;;;;;;5.00;1.33;;;;;;;21.57;40.07;100787.53;5012596;28;20479;-73
2020/12/26 09:45:26;;;;;;;4.28;1.45;;;;;;;21.60;40.05;100787.53;5000175;28;20034;-74
2020/12/26 09:47:55;;;;;;;4.22;2.13;;;;;;;21.66;40.09;100783.91;4992578;28;20038;-75
2020/12/26 09:50:20;;;;;;;4.47;1.95;;;;;;;21.71;40.04;100778.56;4992546;28;20057;-72
2020/12/26 09:52:48;;;;;;;3.35;1.40;;;;;;;21.72;39.94;100775.03;5007376;28;20034;-72
2020/12/26 09:55:14;;;;;;;4.32;1.58;;;;;;;21.75;40.10;100770.56;5012298;28;20038;-79
2020/12/26 09:57:40;;;;;;;3.53;1.50;;;;;;;21.80;40.00;100764.34;5012424;28;20029;-73
2020/12/26 10:00:07;;;;;;;2.97;1.65;;;;;;;21.81;40.10;100756.38;4996791;28;20038;-80
2020/12/26 10:02:33;;;;;;;3.60;1.52;;;;;;;21.83;40.07;100770.41;4992238;28;20045;-73
2020/12/26 10:04:58;;;;;;;4.32;1.63;;;;;;;21.85;39.88;100762.47;4992356;28;20030;-80
2020/12/26 10:07:24;;;;;;;8.73;1.80;;;;;;;21.88;40.04;100760.63;4991230;28;20046;-74
2020/12/26 10:09:49;;;;;;;4.32;1.80;;;;;;;21.80;40.03;100751.16;4991371;28;20081;-79
2020/12/26 10:12:15;;;;;;;6.65;2.10;;;;;;;21.84;40.02;100750.16;4992887;28;20031;-75
2020/12/26 10:14:40;;;;;;;5.35;1.70;;;;;;;21.74;40.04;100747.72;5003426;28;20117;-77
2020/12/26 10:17:05;;;;;;;3.53;1.42;;;;;;;21.74;40.12;100746.84;5008298;28;20123;-77
2020/12/26 10:19:31;;;;;;;5.28;2.00;;;;;;;21.71;40.19;100754.81;4992119;28;20047;-77
2020/12/26 10:21:56;;;;;;;5.32;1.80;;;;;;;21.71;40.13;100741.63;4992826;28;20191;-78
2020/12/26 10:24:21;;;;;;;5.15;1.50;;;;;;;21.66;40.59;100746.13;5009573;28;20038;-75
2020/12/26 10:26:47;;;;;;;9.93;2.00;;;;;;;21.64;40.16;100734.72;5031659;28;20402;-74
2020/12/26 10:29:12;;;;;;;3.55;1.58;;;;;;;21.63;40.51;100738.25;5031972;28;20033;-75
2020/12/26 10:31:38;;;;;;;11.88;2.35;;;;;;;21.64;40.56;100737.38;5031343;28;20041;-75
2020/12/26 10:34:06;;;;;;;5.57;2.10;;;;;;;21.62;40.54;100728.59;5031915;28;20120;-74
2020/12/26 10:36:32;;;;;;;6.72;2.08;;;;;;;21.64;40.67;100722.44;5018335;28;20505;-78
2020/12/26 10:38:57;;;;;;;3.38;1.70;;;;;;;21.68;40.41;100724.09;5001017;28;20042;-77
2020/12/26 10:41:24;;;;;;;5.93;1.67;;;;;;;21.73;40.46;100716.97;4996135;28;20042;-80
2020/12/26 10:43:49;;;;;;;4.63;1.30;;;;;;;21.75;40.28;100717.81;4978514;28;20037;-79
2020/12/26 10:46:14;;;;;;;7.28;1.83;;;;;;;21.79;40.35;100715.97;5005696;28;20046;-77
2020/12/26 10:48:40;;;;;;;4.97;1.55;;;;;;;21.80;40.07;100722.97;4994714;28;20402;-81
2020/12/26 10:51:06;;;;;;;4.55;1.73;;;;;;;21.79;40.26;100723.03;4978714;28;20149;-79
2020/12/26 10:53:31;;;;;;;6.88;1.65;;;;;;;21.75;40.31;100720.44;4995289;28;20529;-79
2020/12/26 10:55:57;;;;;;;14.05;1.60;;;;;;;21.80;40.41;100715.06;4994757;28;20113;-81
2020/12/26 10:58:22;;;;;;;4.20;1.40;;;;;;;21.81;40.27;100714.16;4995459;28;20077;-79
2020/12/26 11:00:48;;;;;;;8.82;1.73;;;;;;;21.80;40.34;100696.59;4994429;28;20495;-80
2020/12/26 11:03:13;;;;;;;8.95;1.60;;;;;;;21.85;40.11;100692.09;4994887;28;20125;-77
2020/12/26 11:05:38;;;;;;;8.45;1.77;;;;;;;21.87;39.98;100685.03;4997461;28;20026;-79
2020/12/26 11:08:04;;;;;;;6.53;2.08;;;;;;;21.92;40.22;100689.31;5015617;28;20038;-77
2020/12/26 11:10:30;;;;;;;8.93;1.90;;;;;;;21.96;40.26;100677.81;5005835;28;20023;-78
2020/12/26 11:12:56;;;;;;;8.93;2.30;;;;;;;22.00;39.88;100684.78;4997280;28;20065;-75
2020/12/26 11:15:23;;;;;;;18.88;2.05;;;;;;;22.00;40.11;100677.72;4997283;28;20442;-78
2020/12/26 11:17:49;;;;;;;5.25;1.52;;;;;;;22.03;40.16;100660.97;5002972;28;20057;-78
2020/12/26 11:20:14;;;;;;;3.38;1.38;;;;;;;21.98;40.11;100660.19;4995034;28;20039;-72
2020/12/26 11:22:40;;;;;;;5.32;1.50;;;;;;;21.96;40.05;100652.28;4995653;28;20045;-77
2020/12/26 11:25:05;;;;;;;4.50;1.30;;;;;;;21.90;40.04;100653.28;5023143;28;20064;-75
2020/12/26 11:27:32;;;;;;;5.22;1.58;;;;;;;21.87;40.06;100637.53;5034890;28;20041;-73